Main page
METAR-TAF:

METAR-TAF

Airports :

Persian Gulf Airport

Asaluyeh, Iran

latitude: 27-22-46N, longitude: 52-44-15E, elevation: 8 m

Current weather observation

The report was made 21 minutes ago, at 16:00 UTC
Wind 8 kt from the West/Northwest
Temperature 30°C
Humidity 43%
Pressure 1010 hPa
Visibility 10 km or more
no clouds below 1500 m and no cumulonimbus

METAR: OIBP 251600Z 29008KT CAVOK 30/16 Q1010 A2983

Time: 19:51 (16:21 UTC)

Forecast

The report was made 2 hours and 11 minutes ago, at 14:10 UTC
Forecast valid from 25 at 15 UTC to 25 at 24 UTC
Wind 6 kt from the West/Southwest
Visibility: 8000 m

TAF: OIBP 251410Z 2515/2524 25006KT 8000 NSC

Weather observations and forecasts of more than 4000 airports (METAR and TAF reports).

The available stations are represented by yellow and red dots on the map.

Hover mouse over dot to see the name of the station.

Then click to see weather observations and forecasts.

To change the map : click on the green buttons with a black cross to zoom in, on the green button with a dash to zoom out, or on the green arrows for adjacent maps.


METAR-TAF: